Date,TemperatureHighF,TemperatureAvgF,TemperatureLowF,DewpointHighF,DewpointAvgF,DewpointLowF,HumidityHigh,HumidityAvg,HumidityLow,PressureMaxIn,PressureMinIn,WindSpeedMaxMPH,WindSpeedAvgMPH,GustSpeedMaxMPH,PrecipitationSumIn
2013-1-1,39.7,36.0,29.1,38.3,31.9,23.0,98,86,67,0.00,0.00,8,2,8,0.00
2013-1-2,39.0,30.4,22.1,26.8,16.2,9.1,87,57,32,0.00,0.00,8,3,230,0.00
2013-1-3,46.9,30.8,20.5,22.3,17.1,12.9,97,60,30,0.00,0.00,8,2,8,0.00
2013-1-4,46.6,32.1,23.5,23.0,16.0,8.4,90,55,28,0.00,0.00,8,2,8,0.00
2013-1-5,48.2,36.9,27.3,28.5,19.7,11.6,86,51,37,0.00,0.00,12,2,12,0.00
2013-1-6,48.6,36.4,26.1,33.3,17.4,7.9,98,51,24,0.00,0.00,9,3,9,0.00
2013-1-7,48.0,37.1,27.1,17.3,14.3,11.9,58,40,28,0.00,0.00,11,4,12,0.00
2013-1-8,54.7,42.2,32.5,44.6,24.8,13.4,98,53,29,0.00,0.00,11,2,11,0.35
2013-1-9,57.6,49.1,45.3,50.0,45.4,39.2,98,88,51,0.00,0.00,17,2,17,0.04
2013-1-10,59.0,52.5,44.6,57.0,50.1,43.0,98,92,68,0.00,0.00,17,2,17,0.16
2013-1-11,64.8,47.5,40.6,46.0,40.2,31.8,98,81,29,0.00,0.00,10,4,10,0.00
2013-1-16,64.8,35.2,25.9,31.8,6.8,3.1,45,31,23,0.00,0.00,10,4,10,0.55
2013-1-17,49.5,37.6,26.8,20.3,13.0,5.8,52,37,27,0.00,0.00,10,3,10,0.00
2013-1-18,51.6,38.7,27.1,18.8,16.0,9.5,64,41,26,0.00,0.00,10,3,10,0.00
2013-1-19,61.3,45.6,31.8,28.0,19.5,12.7,58,36,24,0.00,0.00,11,3,11,0.00
2013-1-20,57.7,46.1,34.5,36.3,24.5,18.2,95,48,25,0.00,0.00,11,3,11,0.00
2013-1-21,46.8,36.8,26.8,19.2,5.1,-0.9,39,27,17,0.00,0.00,10,4,10,0.00
2013-1-22,36.9,30.3,26.6,10.1,6.4,3.0,40,36,32,0.00,0.00,10,3,10,0.00
2013-1-23,60.4,41.0,30.0,28.8,16.7,9.8,47,38,27,0.00,0.00,9,4,9,0.00
2013-1-28,74.5,67.6,59.2,57.3,48.6,43.6,87,52,34,0.00,0.00,16,6,16,0.00
2013-1-29,68.9,62.1,47.5,61.8,52.0,46.4,98,72,49,17.72,0.00,14,4,14,1.77
2013-1-30,47.5,40.3,36.5,46.6,22.3,14.0,98,52,35,17.72,17.72,26,12,26,0.00
2013-1-31,39.4,39.4,39.4,14.0,14.0,14.0,35,35,35,17.72,17.72,16,16,16,0.00
2013-2-1,39.4,39.4,39.4,14.0,14.0,14.0,35,35,35,17.72,17.72,16,16,16,0.00
2013-2-2,39.4,39.4,39.4,14.0,14.0,14.0,35,35,35,17.72,17.72,16,16,16,0.00
2013-2-3,39.4,39.4,39.4,14.0,14.0,14.0,35,35,35,17.72,17.72,16,16,16,0.00
2013-2-4,39.4,39.4,39.4,14.0,14.0,14.0,35,35,35,17.72,17.72,16,16,16,0.00
2013-2-5,39.4,39.4,39.4,14.0,14.0,14.0,35,35,35,17.72,17.72,16,16,16,0.00
2013-2-6,39.4,39.4,39.4,14.0,14.0,14.0,35,35,35,17.72,17.72,16,16,16,0.00
2013-2-7,39.4,39.4,39.4,14.0,14.0,14.0,35,35,35,17.72,17.72,16,16,16,0.00
2013-2-8,39.4,39.4,39.4,14.0,14.0,14.0,35,35,35,17.72,17.72,16,16,16,0.00
2013-2-9,39.4,39.4,39.4,14.0,14.0,14.0,35,35,35,17.72,17.72,16,16,16,0.00
2013-2-10,39.4,39.4,39.4,14.0,14.0,14.0,35,35,35,17.72,17.72,16,16,16,0.00
2013-2-18,60.8,47.9,36.9,47.8,22.9,12.9,77,38,27,17.72,17.72,29,7,29,0.63
2013-2-19,48.6,38.3,32.2,14.1,8.0,3.2,40,29,19,17.72,17.72,14,4,14,0.00
2013-2-20,35.4,32.2,29.1,27.0,17.0,7.5,87,56,31,17.72,17.72,17,5,17,0.00
2013-2-21,33.1,31.5,28.6,32.4,25.9,15.9,98,80,56,17.72,17.72,16,2,16,0.00
2013-2-22,37.9,31.0,20.8,32.4,16.9,9.4,98,58,33,17.72,17.72,8,1,8,0.00
2013-2-23,46.8,34.6,22.1,20.0,14.7,8.6,78,47,27,17.72,17.72,12,3,12,0.00
2013-2-24,54.5,42.5,27.0,22.5,19.6,16.0,80,42,27,17.72,17.72,17,7,17,0.00
2013-2-25,49.1,44.5,41.7,43.5,30.0,16.7,98,63,29,17.72,17.72,28,5,28,0.00
2013-2-26,42.6,37.1,34.3,42.1,25.6,19.2,98,65,49,17.72,17.72,20,6,20,0.00
2013-2-27,48.0,38.5,31.5,21.1,17.1,11.4,56,42,28,17.72,17.72,17,3,17,0.00
2013-2-28,47.1,36.6,28.4,19.5,14.7,11.8,66,41,28,17.72,17.72,18,5,18,0.87
2013-3-1,43.9,33.7,27.5,13.5,9.7,3.1,43,36,28,17.72,17.72,17,4,17,0.00
2013-3-2,42.1,32.9,23.5,11.7,7.4,1.0,58,35,21,17.72,17.72,15,4,15,0.00
2013-3-3,58.1,42.1,27.0,16.6,11.5,6.3,43,30,17,17.72,17.72,15,5,15,0.00
2013-3-4,68.0,50.0,41.7,31.0,21.3,13.7,40,32,24,17.72,17.72,16,8,16,0.00
2013-3-7,59.7,51.4,44.4,19.1,15.9,11.3,36,25,17,17.72,17.72,13,8,13,0.00
2013-3-8,59.7,51.0,41.5,23.1,20.0,16.0,39,30,24,17.72,17.72,16,8,16,0.00
2013-3-9,66.2,57.7,48.7,54.8,33.4,19.2,90,42,24,17.72,17.72,17,8,17,0.71
2013-3-10,59.2,47.2,33.1,55.4,39.2,16.5,98,76,46,17.72,17.72,22,5,22,1.22
2013-3-11,47.8,37.7,29.1,16.9,11.1,4.4,51,35,19,17.72,17.72,15,5,15,0.00
2013-3-12,62.2,45.1,29.1,24.6,13.9,6.1,53,30,17,17.72,17.72,11,4,11,0.00
2013-3-13,57.0,42.5,27.0,10.6,6.4,0.9,42,24,15,17.72,17.72,10,2,10,0.00
2013-3-14,52.3,35.9,34.0,27.0,9.1,7.7,40,32,29,17.72,17.72,5,2,5,0.00
2013-3-17,46.6,46.6,46.6,44.4,44.4,44.4,92,92,92,17.72,17.72,11,9,11,0.04
2013-3-18,46.6,46.4,46.4,45.9,45.5,44.4,98,96,92,17.72,17.72,8,0,8,0.08
2013-3-21,35.6,35.1,34.7,32.8,31.8,30.7,90,88,82,17.72,17.72,22,12,22,0.12
2013-3-22,46.9,40.0,34.0,37.3,31.9,26.6,95,74,48,17.72,17.72,21,6,21,0.31
2013-3-23,46.2,42.4,40.5,41.7,37.0,29.0,98,82,63,17.72,17.72,0,0,0,0.08
2013-3-24,43.3,35.7,27.5,42.5,21.8,7.6,97,60,37,17.72,17.72,20,7,20,0.08
2013-3-25,39.7,31.9,23.7,11.1,7.9,5.1,57,37,29,17.72,17.72,23,6,23,0.08
2013-3-26,52.0,36.0,21.9,22.5,8.8,4.1,69,35,19,17.72,17.72,11,3,11,0.08
2013-3-27,63.5,45.6,26.4,16.5,12.2,7.5,56,29,14,17.72,17.72,13,5,13,0.08
2013-3-28,75.9,58.4,44.8,34.4,24.8,14.0,43,28,18,17.72,17.72,11,6,230,0.08
2013-3-29,60.8,57.6,54.5,53.2,43.5,34.1,90,60,41,17.72,17.72,6,0,6,0.08
2013-3-30,68.9,58.9,52.7,56.0,49.2,38.8,98,75,34,17.72,17.72,13,3,13,0.51
2013-3-31,69.4,58.3,51.8,56.8,46.8,21.9,98,73,20,17.72,17.72,11,1,11,0.00
2013-4-1,84.6,60.9,43.3,32.0,27.1,20.3,63,31,11,17.72,17.72,13,4,13,0.00
2013-4-2,51.6,43.5,38.5,39.4,32.7,20.6,98,69,35,17.72,17.72,20,5,20,0.43
2013-4-3,51.6,43.6,38.3,35.7,19.8,6.4,87,42,19,17.72,17.72,18,4,18,0.00
2013-4-4,60.8,47.9,39.7,36.9,29.6,17.8,86,54,22,17.72,17.72,10,2,10,0.16
2013-4-5,73.6,55.4,35.2,33.5,22.9,14.9,84,35,14,17.72,17.72,10,3,10,0.00
2013-4-6,76.3,63.0,51.3,33.1,26.3,22.0,37,26,15,17.72,17.72,21,6,21,0.00
2013-4-7,77.9,64.7,51.8,41.7,38.0,32.0,62,38,24,17.72,17.72,16,4,16,0.00
2013-4-8,75.0,66.6,62.4,46.0,42.7,39.3,53,43,29,17.72,17.72,0,0,0,0.00
2013-4-9,84.4,77.5,72.7,47.7,39.6,35.6,41,26,20,17.72,17.72,20,6,20,0.00
2013-4-10,73.6,71.0,39.7,57.8,50.3,33.5,83,49,40,17.72,17.72,12,1,12,0.71
2013-4-11,52.2,43.6,37.4,24.8,18.6,13.3,60,38,23,17.72,17.72,11,3,11,0.71
2013-4-12,64.0,49.8,33.3,28.5,19.7,12.5,73,35,16,17.72,17.72,12,3,12,0.71
2013-4-13,67.1,55.9,45.3,31.4,26.0,21.8,49,32,23,17.72,17.72,12,5,12,0.71
2013-4-14,82.2,67.3,52.7,39.1,33.0,25.3,55,31,15,17.72,17.72,15,6,15,0.71
2013-4-15,86.4,70.2,61.3,51.2,45.2,38.5,64,43,21,17.72,17.72,17,4,232,0.71
2013-4-16,88.5,75.6,64.0,55.7,46.7,38.6,73,40,19,17.72,17.72,13,4,13,0.71
2013-4-17,86.4,75.8,68.9,59.5,50.6,42.2,71,44,23,17.72,17.72,16,5,16,0.71
2013-4-18,75.4,53.9,40.5,55.0,35.5,15.0,89,52,34,17.72,17.72,23,8,23,1.22
2013-4-19,63.5,46.5,31.3,23.5,13.5,6.7,56,29,15,17.72,17.72,17,6,17,0.71
2013-4-20,76.8,54.6,34.9,29.7,22.4,14.6,74,35,13,17.72,17.72,13,3,13,0.71
2013-4-21,70.0,57.8,47.3,29.5,25.3,15.9,49,30,15,17.72,17.72,17,5,17,0.71
2013-4-22,78.4,62.7,47.3,32.5,25.2,18.7,41,26,13,17.72,17.72,16,5,16,0.71
2013-4-23,72.9,55.7,38.5,42.7,36.2,31.7,88,53,25,17.72,17.72,16,5,16,0.71
2013-4-24,43.5,38.1,37.2,35.5,32.0,13.7,89,81,30,17.72,17.72,13,4,13,0.16
2013-4-25,77.4,55.9,31.6,22.6,17.5,11.1,67,26,11,17.72,17.72,10,3,10,0.08
2013-4-26,57.0,52.6,49.6,51.3,37.4,21.0,98,60,25,17.72,17.72,22,7,22,0.12
2013-4-27,66.2,55.4,51.8,55.3,48.0,40.2,98,78,44,17.72,17.72,8,1,8,0.39
2013-4-28,77.7,62.3,51.4,47.7,39.9,30.5,80,48,20,17.72,17.72,13,2,13,0.08
2013-4-29,87.1,70.2,54.0,49.3,40.9,31.8,82,40,16,17.72,17.72,15,4,15,0.08
2013-4-30,94.8,72.3,55.9,53.5,37.0,22.7,86,36,11,17.72,17.72,17,4,17,0.08
2013-5-1,85.6,69.6,59.9,53.4,43.0,33.6,76,40,22,17.72,17.72,18,5,18,0.08
2013-5-2,61.7,52.1,36.7,58.9,44.1,32.4,96,76,45,17.72,17.72,13,3,13,0.08
2013-5-3,59.2,44.6,34.2,32.8,21.4,9.7,85,46,17,17.72,17.72,17,5,17,0.39
2013-5-4,55.0,44.1,37.0,35.4,26.9,19.6,83,52,29,17.72,17.72,15,3,15,0.12
2013-5-5,69.1,51.8,35.8,45.0,31.8,22.6,93,55,20,17.72,17.72,14,3,14,0.08
2013-5-6,76.3,58.8,46.8,46.2,38.4,30.0,84,51,21,17.72,17.72,13,2,13,0.08
2013-5-7,86.7,67.1,49.3,52.6,37.4,23.5,89,41,15,17.72,17.72,10,2,10,0.08
2013-5-8,90.0,71.4,55.2,46.4,38.9,30.3,72,35,12,17.72,17.72,12,4,12,0.08
2013-5-9,88.5,68.7,58.8,60.1,48.6,38.8,88,53,19,17.72,17.72,13,2,13,0.20
2013-5-10,85.1,68.1,55.9,63.9,49.1,36.0,95,57,23,17.72,17.72,10,2,10,0.39
2013-5-11,84.6,65.6,51.8,54.9,36.6,21.6,90,42,17,17.72,17.72,13,3,13,0.08
2013-5-12,82.9,60.7,40.3,40.8,23.9,16.6,70,29,12,17.72,17.72,9,2,9,0.08
2013-5-13,89.1,67.9,46.9,43.2,32.0,24.5,79,32,10,17.72,17.72,16,4,16,0.08
2013-5-14,100.9,75.6,53.1,53.0,36.2,25.3,69,31,7,17.72,17.72,17,3,17,0.08
2013-5-15,83.3,64.9,58.3,65.4,45.4,33.8,93,52,28,17.72,17.72,15,1,15,0.59
2013-5-16,75.6,65.5,62.1,63.4,55.1,45.2,96,71,34,17.72,17.72,8,2,8,0.12
2013-5-17,91.9,73.7,59.5,66.3,53.6,40.2,98,58,18,17.72,17.72,7,2,7,0.00
2013-5-18,92.5,78.5,68.5,66.7,57.3,49.9,92,53,25,17.72,17.72,11,4,11,0.00
2013-5-19,97.3,81.3,69.6,67.7,50.9,36.9,90,43,15,17.72,17.72,17,6,17,0.00
2013-5-20,86.5,74.6,62.6,61.5,53.0,47.6,95,49,29,17.72,17.72,27,4,27,0.67
2013-5-21,66.6,61.8,59.5,62.5,60.2,52.4,98,95,61,17.72,17.72,21,2,21,2.09
2013-5-22,88.5,68.5,55.2,63.0,49.1,38.5,98,58,19,17.72,17.72,15,4,15,0.00
2013-5-23,85.5,68.2,57.4,61.8,51.2,36.5,85,58,20,17.72,17.72,6,1,6,0.00
2013-5-24,79.2,68.3,59.4,55.4,41.6,33.0,73,40,23,17.72,17.72,17,6,17,0.00
2013-5-25,82.8,70.4,59.5,51.4,40.0,30.2,54,34,17,17.72,17.72,11,4,11,0.00
2013-5-26,95.4,76.3,63.9,55.2,48.1,39.3,73,41,17,17.72,17.72,15,4,15,0.00
2013-5-27,98.1,77.8,67.6,59.0,49.8,40.5,72,42,16,17.72,17.72,15,5,15,0.00
2013-5-28,98.2,79.2,70.0,56.1,46.5,36.8,61,35,14,17.72,17.72,17,5,17,0.00
2013-5-29,95.4,78.2,68.5,55.5,47.9,39.9,63,37,17,17.72,17.72,15,5,16,0.00
2013-5-30,88.5,71.4,62.4,68.8,54.9,46.2,98,61,25,17.72,17.72,15,4,15,0.75
2013-5-31,100.9,80.6,68.0,69.0,56.2,43.7,98,50,15,17.72,17.72,15,4,15,0.75
2013-6-1,80.2,69.0,62.1,67.8,58.2,47.5,98,73,34,17.72,17.72,10,2,10,3.03
2013-6-2,90.9,69.3,55.8,61.8,44.3,34.5,90,48,15,17.72,17.72,8,3,8,0.75
2013-6-3,87.8,70.1,51.6,58.1,43.6,34.2,91,46,18,17.72,17.72,9,3,9,0.75
2013-6-4,79.3,70.2,62.6,53.6,48.5,43.7,72,48,30,17.72,17.72,13,4,13,0.75
2013-6-5,83.5,71.1,65.3,63.9,51.8,45.6,91,53,30,17.72,17.72,14,1,14,0.75
2013-6-6,82.6,71.0,59.7,61.4,49.1,40.2,95,51,23,17.72,17.72,8,2,8,0.75
2013-6-7,93.6,71.2,56.7,56.0,39.6,26.3,90,40,12,17.72,17.72,9,2,9,0.75
2013-6-8,94.8,74.4,55.8,51.2,39.7,29.8,73,34,11,17.72,17.72,10,3,10,0.75
2013-6-9,104.4,76.5,65.3,51.4,43.2,32.0,59,34,12,17.72,17.72,13,3,13,0.75
2013-6-10,107.2,82.0,61.5,57.9,46.5,35.0,73,35,9,17.72,17.72,17,3,17,0.75
2013-6-11,111.7,85.5,65.8,73.2,51.3,33.1,88,40,7,17.72,17.72,13,3,13,0.75
2013-6-12,109.6,86.2,70.9,66.5,53.0,40.8,83,39,11,17.72,17.72,14,4,14,0.75
2013-6-13,75.2,74.3,73.2,62.4,60.6,59.7,68,62,59,17.72,17.72,5,0,5,0.00
2013-6-14,80.1,78.1,77.0,55.6,53.5,51.5,44,43,41,17.72,17.72,9,4,9,0.00
2013-6-15,104.5,83.5,71.1,58.8,49.8,38.0,57,35,12,17.72,17.72,10,3,10,0.00
2013-6-16,92.7,78.2,69.8,62.3,56.2,46.5,77,49,21,17.72,17.72,15,2,15,0.31
2013-7-10,73.2,72.9,72.7,49.5,49.1,48.8,44,43,42,17.72,17.72,6,4,6,0.31
2013-7-22,95.5,95.5,95.5,49.4,49.4,49.4,21,21,21,0.00,40.00,3,3,3,0.00
2013-7-23,74.1,72.3,71.1,71.0,69.2,64.9,98,90,73,17.72,17.72,15,7,15,0.48
2013-7-24,71.6,71.6,71.6,71.0,71.0,71.0,98,98,98,17.72,17.72,13,3,13,0.71
2013-7-25,71.6,71.6,71.6,71.0,71.0,71.0,98,98,98,17.72,17.72,8,2,8,0.00
2013-7-26,71.6,71.6,71.6,71.0,71.0,71.0,98,98,98,17.72,17.72,11,2,11,0.31
2013-7-27,71.6,71.6,71.6,71.0,71.0,71.0,98,98,98,17.72,17.72,9,1,9,0.00
2013-7-28,71.6,71.6,71.6,71.0,71.0,71.0,98,98,98,17.72,17.72,9,2,9,0.00
2013-7-29,71.6,71.6,71.6,71.0,71.0,71.0,98,98,98,17.72,17.72,11,5,11,0.00
2013-7-30,71.6,71.6,71.6,71.0,71.0,71.0,98,98,98,17.72,17.72,14,3,14,0.08
2013-7-31,71.6,71.6,71.6,71.0,71.0,71.0,98,98,98,17.72,17.72,8,2,8,0.16
2013-8-1,71.6,71.6,71.6,71.0,71.0,71.0,98,98,98,17.72,17.72,6,2,6,0.00
2013-8-2,71.6,71.6,71.6,71.0,71.0,71.0,98,98,98,17.72,17.72,11,4,11,0.00
2013-8-3,71.6,71.6,71.6,71.0,71.0,71.0,98,98,98,17.72,17.72,12,3,12,0.00
2013-8-4,74.8,71.9,71.6,71.0,70.4,62.3,98,95,69,17.72,17.72,13,4,13,0.04
2013-8-5,100.8,84.4,72.1,71.2,57.4,45.1,95,48,17,17.72,17.72,10,4,10,0.04
2013-8-6,100.6,86.5,74.1,67.9,53.5,43.3,80,37,15,17.72,17.72,11,3,11,0.00
2013-8-7,104.2,86.2,73.4,66.2,54.2,38.9,75,38,12,17.72,17.72,13,3,13,0.00
2013-8-8,95.2,81.4,71.4,71.8,58.5,42.1,91,52,18,17.72,17.72,12,4,12,0.55
2013-9-28,70.0,70.0,70.0,66.9,66.9,66.9,90,90,90,17.72,17.72,0,0,0,0.55
2013-10-30,62.8,61.9,61.5,60.8,59.7,58.4,97,93,86,17.72,17.72,10,3,10,0.35
2013-10-31,77.7,61.6,48.0,69.2,48.6,18.5,98,71,14,17.72,17.72,27,4,27,0.71
2013-11-1,69.3,55.7,41.2,45.4,26.8,12.5,87,39,15,17.72,17.72,16,3,16,0.00
2013-11-2,58.1,48.6,37.9,28.1,19.7,8.8,65,34,17,17.72,17.72,15,3,15,0.00
2013-11-3,62.2,48.3,35.2,35.0,23.1,13.2,86,43,16,17.72,17.72,13,4,13,0.00
2013-11-4,55.9,51.8,48.9,52.2,36.1,24.9,97,58,35,17.72,17.72,13,3,13,0.04
2013-11-5,61.3,57.3,53.1,60.8,55.1,49.1,98,93,70,17.72,17.72,0,0,0,1.02
2013-11-6,62.6,48.0,34.7,62.0,36.5,19.7,98,67,34,17.72,17.72,13,2,13,0.35
2013-11-7,59.4,44.7,30.6,32.6,23.9,15.3,85,49,19,17.72,17.72,10,2,10,0.00
2013-11-8,65.3,49.2,34.7,35.8,21.7,9.2,80,40,13,17.72,17.72,11,3,11,0.00
2013-11-9,67.3,54.1,45.1,28.9,24.7,14.8,51,34,15,17.72,17.72,10,3,10,0.00
2013-11-10,66.9,56.2,48.6,34.2,23.9,14.9,55,31,15,17.72,17.72,10,2,10,0.00
2013-11-11,67.8,57.4,45.9,35.5,26.8,18.8,47,32,17,17.72,17.72,17,2,17,0.00
2013-11-12,57.2,38.9,24.6,33.7,7.9,-5.6,47,29,16,17.72,17.72,17,6,17,0.00
2013-11-13,45.3,32.5,19.6,9.4,3.0,-2.9,55,30,17,17.72,17.72,9,2,9,0.00
2013-11-14,30.9,29.2,28.2,9.0,6.1,4.1,41,37,33,17.72,17.72,5,2,5,0.00
2013-11-15,50.5,50.5,50.5,42.2,42.0,41.9,73,72,72,17.72,17.72,9,6,9,0.00
2013-11-16,69.6,66.4,64.4,56.6,45.7,37.2,69,48,32,17.72,17.72,13,6,13,0.04
2013-11-17,77.0,66.2,49.3,58.1,29.2,4.4,72,31,10,17.72,17.72,22,4,22,0.00
2013-11-18,65.5,51.1,37.2,14.6,8.2,0.3,31,18,13,17.72,17.72,10,2,10,0.00
2013-11-19,56.1,49.5,45.5,9.1,5.5,3.2,17,16,15,17.72,17.72,17,6,17,0.00
2013-11-20,64.4,51.3,39.9,12.6,8.0,1.8,29,18,13,17.72,17.72,14,7,14,0.00
2013-11-21,57.9,52.9,47.1,55.1,38.9,7.5,95,65,15,17.72,17.72,11,4,11,0.63
2013-11-22,47.3,37.7,35.2,42.8,26.1,16.8,86,64,41,17.72,17.72,15,5,15,0.08
2013-11-23,44.2,36.3,27.7,28.3,9.4,-7.4,75,37,18,17.72,17.72,15,5,15,0.08
2013-11-24,32.4,28.1,23.4,0.7,-6.3,-9.6,28,22,18,17.72,17.72,10,2,10,0.00
2013-11-25,35.4,32.2,28.2,25.0,12.4,-6.2,66,46,20,17.72,17.72,9,1,9,0.04
2013-11-26,46.8,37.6,29.7,25.0,9.3,-1.1,66,33,17,17.72,17.72,17,5,17,0.00
2013-11-27,37.6,27.9,20.3,2.0,-6.0,-11.0,42,23,16,17.72,17.72,15,4,15,0.00
2013-11-28,47.7,32.5,18.7,9.8,3.4,-2.2,50,31,17,17.72,17.72,12,1,12,0.00
2013-11-29,52.7,39.4,26.4,12.7,6.8,-0.1,54,28,16,17.72,17.72,9,3,9,0.00
2013-11-30,60.6,45.9,33.4,37.2,18.2,7.7,70,35,17,17.72,17.72,10,3,10,0.00
2013-12-1,60.6,52.5,46.9,40.0,29.6,0.0,68,42,1,17.72,17.72,5,1,5,0.00
2013-12-2,63.5,52.9,46.0,47.6,37.5,25.8,86,59,24,17.72,17.72,9,1,9,0.00
2013-12-3,60.3,51.4,43.0,52.2,45.1,34.3,98,81,40,17.72,17.72,14,5,14,0.00
2013-12-4,66.9,52.2,38.5,55.3,35.8,14.5,98,62,15,17.72,17.72,13,6,13,0.00
2013-12-5,38.5,29.9,26.1,22.9,13.7,4.9,74,51,33,17.72,17.72,13,4,232,0.04
2013-12-6,27.3,22.2,19.2,14.1,8.2,1.4,67,55,43,17.72,17.72,9,4,9,0.00
2013-12-7,30.4,20.6,9.7,12.6,1.8,-7.6,62,44,24,17.72,17.72,8,2,8,0.00
2013-12-8,32.2,26.5,22.3,25.4,17.0,5.1,83,68,46,17.72,17.72,10,3,10,0.00
2013-12-9,35.2,27.8,22.1,24.9,10.4,1.7,81,49,31,17.72,17.72,8,1,8,0.00
2013-12-10,29.3,22.8,13.6,18.6,9.4,1.8,81,57,39,17.72,17.72,0,0,0,0.00
2013-12-11,25.2,23.6,21.9,19.6,17.6,15.5,79,77,76,17.72,17.72,0,0,0,0.00
2013-12-13,35.8,35.4,35.1,35.3,34.7,33.8,98,97,95,17.72,17.72,0,0,0,0.00
2013-12-14,37.8,33.9,26.4,37.2,26.2,10.7,98,76,42,17.72,17.72,4,0,4,0.00
2013-12-15,46.0,32.9,21.7,22.3,16.3,11.5,76,53,27,17.72,17.72,8,2,8,0.00
2013-12-16,57.2,41.5,28.8,30.7,18.7,9.7,85,47,17,17.72,17.72,8,2,8,0.00
2013-12-17,62.8,45.0,33.1,28.4,15.5,2.6,74,36,13,17.72,17.72,11,2,11,0.00
2013-12-18,62.8,47.0,31.8,21.6,11.5,6.1,46,25,13,17.72,17.72,14,5,14,0.00
2013-12-19,62.8,56.1,43.5,40.2,31.0,16.2,50,39,27,17.72,17.72,13,6,13,0.00
2013-12-20,64.6,51.2,37.9,49.9,38.0,27.7,80,62,46,17.72,17.72,11,2,11,0.00
2013-12-21,41.4,38.7,36.9,38.1,34.5,31.4,88,85,78,17.72,17.72,10,3,10,0.00